sensor_id;sensor_type;location;lat;lon;timestamp;P1;durP1;ratioP1;P2;durP2;ratioP2
51800;SDS011;37855;53.204;6.568;2022-11-20T00:03:33;32.25;;;19.15;;
51800;SDS011;37855;53.204;6.568;2022-11-20T00:06:02;26.27;;;17.27;;
51800;SDS011;37855;53.204;6.568;2022-11-20T00:08:29;24.90;;;17.40;;
51800;SDS011;37855;53.204;6.568;2022-11-20T00:10:55;22.27;;;16.55;;
51800;SDS011;37855;53.204;6.568;2022-11-20T00:13:21;23.52;;;17.23;;
51800;SDS011;37855;53.204;6.568;2022-11-20T00:16:15;18.77;;;14.40;;
51800;SDS011;37855;53.204;6.568;2022-11-20T00:18:44;20.38;;;14.60;;
51800;SDS011;37855;53.204;6.568;2022-11-20T00:21:16;20.52;;;16.05;;
51800;SDS011;37855;53.204;6.568;2022-11-20T00:23:46;21.20;;;15.38;;
51800;SDS011;37855;53.204;6.568;2022-11-20T00:26:13;21.10;;;15.60;;
51800;SDS011;37855;53.204;6.568;2022-11-20T00:28:41;21.13;;;15.65;;
51800;SDS011;37855;53.204;6.568;2022-11-20T00:31:14;21.30;;;15.82;;
51800;SDS011;37855;53.204;6.568;2022-11-20T00:33:41;22.13;;;16.05;;
51800;SDS011;37855;53.204;6.568;2022-11-20T00:36:08;22.83;;;16.63;;
51800;SDS011;37855;53.204;6.568;2022-11-20T00:38:39;21.52;;;16.48;;
51800;SDS011;37855;53.204;6.568;2022-11-20T00:41:06;21.70;;;16.20;;
51800;SDS011;37855;53.204;6.568;2022-11-20T00:43:33;19.67;;;15.27;;
51800;SDS011;37855;53.204;6.568;2022-11-20T00:46:00;19.67;;;14.68;;
51800;SDS011;37855;53.204;6.568;2022-11-20T00:48:31;19.40;;;14.43;;
51800;SDS011;37855;53.204;6.568;2022-11-20T00:51:00;16.05;;;12.05;;
51800;SDS011;37855;53.204;6.568;2022-11-20T00:53:28;17.23;;;12.20;;
51800;SDS011;37855;53.204;6.568;2022-11-20T00:55:58;17.80;;;12.63;;
51800;SDS011;37855;53.204;6.568;2022-11-20T00:58:37;17.33;;;12.30;;
51800;SDS011;37855;53.204;6.568;2022-11-20T01:01:22;16.42;;;11.90;;
51800;SDS011;37855;53.204;6.568;2022-11-20T01:03:50;16.60;;;12.77;;
51800;SDS011;37855;53.204;6.568;2022-11-20T01:06:21;17.83;;;13.57;;
51800;SDS011;37855;53.204;6.568;2022-11-20T01:08:53;18.10;;;13.45;;
51800;SDS011;37855;53.204;6.568;2022-11-20T01:11:22;17.83;;;13.32;;
51800;SDS011;37855;53.204;6.568;2022-11-20T01:13:52;17.08;;;13.63;;
51800;SDS011;37855;53.204;6.568;2022-11-20T01:16:21;18.65;;;13.68;;
51800;SDS011;37855;53.204;6.568;2022-11-20T01:18:50;19.00;;;13.75;;
51800;SDS011;37855;53.204;6.568;2022-11-20T01:21:18;18.75;;;14.40;;
51800;SDS011;37855;53.204;6.568;2022-11-20T01:23:46;18.10;;;13.77;;
51800;SDS011;37855;53.204;6.568;2022-11-20T01:26:14;19.63;;;14.63;;
51800;SDS011;37855;53.204;6.568;2022-11-20T01:28:42;18.40;;;14.55;;
51800;SDS011;37855;53.204;6.568;2022-11-20T01:31:18;18.20;;;13.88;;
51800;SDS011;37855;53.204;6.568;2022-11-20T01:33:46;17.83;;;13.98;;
51800;SDS011;37855;53.204;6.568;2022-11-20T01:36:14;20.80;;;13.95;;
51800;SDS011;37855;53.204;6.568;2022-11-20T01:38:41;19.48;;;14.68;;
51800;SDS011;37855;53.204;6.568;2022-11-20T01:41:08;20.15;;;14.80;;
51800;SDS011;37855;53.204;6.568;2022-11-20T01:43:34;19.52;;;14.63;;
51800;SDS011;37855;53.204;6.568;2022-11-20T01:48:50;20.23;;;14.82;;
51800;SDS011;37855;53.204;6.568;2022-11-20T01:51:45;18.83;;;14.75;;
51800;SDS011;37855;53.204;6.568;2022-11-20T01:54:19;20.30;;;14.55;;
51800;SDS011;37855;53.204;6.568;2022-11-20T01:56:56;21.42;;;15.10;;
51800;SDS011;37855;53.204;6.568;2022-11-20T01:59:24;21.50;;;15.95;;
51800;SDS011;37855;53.204;6.568;2022-11-20T02:01:52;20.73;;;16.33;;
51800;SDS011;37855;53.204;6.568;2022-11-20T02:04:22;18.95;;;14.77;;
51800;SDS011;37855;53.204;6.568;2022-11-20T02:06:51;19.45;;;14.55;;
51800;SDS011;37855;53.204;6.568;2022-11-20T02:09:26;20.05;;;14.85;;
51800;SDS011;37855;53.204;6.568;2022-11-20T02:11:56;20.50;;;15.95;;
51800;SDS011;37855;53.204;6.568;2022-11-20T02:14:23;19.15;;;14.57;;
51800;SDS011;37855;53.204;6.568;2022-11-20T02:16:51;19.60;;;15.52;;
51800;SDS011;37855;53.204;6.568;2022-11-20T02:24:45;19.48;;;14.90;;
51800;SDS011;37855;53.204;6.568;2022-11-20T02:27:15;21.88;;;16.48;;
51800;SDS011;37855;53.204;6.568;2022-11-20T02:29:49;20.55;;;14.20;;
51800;SDS011;37855;53.204;6.568;2022-11-20T02:32:21;19.75;;;15.20;;
51800;SDS011;37855;53.204;6.568;2022-11-20T02:34:52;22.10;;;16.10;;
51800;SDS011;37855;53.204;6.568;2022-11-20T02:37:20;21.17;;;14.88;;
51800;SDS011;37855;53.204;6.568;2022-11-20T02:39:47;19.20;;;14.95;;
51800;SDS011;37855;53.204;6.568;2022-11-20T02:42:17;22.15;;;15.68;;
51800;SDS011;37855;53.204;6.568;2022-11-20T02:44:43;19.42;;;14.95;;
51800;SDS011;37855;53.204;6.568;2022-11-20T02:47:09;22.92;;;15.70;;
51800;SDS011;37855;53.204;6.568;2022-11-20T02:49:34;20.15;;;15.05;;
51800;SDS011;37855;53.204;6.568;2022-11-20T02:52:01;18.95;;;14.95;;
51800;SDS011;37855;53.204;6.568;2022-11-20T02:54:26;20.83;;;15.38;;
51800;SDS011;37855;53.204;6.568;2022-11-20T02:56:52;19.73;;;14.70;;
51800;SDS011;37855;53.204;6.568;2022-11-20T02:59:18;19.15;;;14.90;;
51800;SDS011;37855;53.204;6.568;2022-11-20T03:01:44;20.65;;;15.07;;
51800;SDS011;37855;53.204;6.568;2022-11-20T03:04:09;22.20;;;15.85;;
51800;SDS011;37855;53.204;6.568;2022-11-20T03:06:35;19.60;;;15.23;;
51800;SDS011;37855;53.204;6.568;2022-11-20T03:09:00;19.65;;;15.05;;
51800;SDS011;37855;53.204;6.568;2022-11-20T03:11:28;19.42;;;15.10;;
51800;SDS011;37855;53.204;6.568;2022-11-20T03:13:56;19.85;;;15.00;;
51800;SDS011;37855;53.204;6.568;2022-11-20T03:16:22;17.95;;;14.63;;
51800;SDS011;37855;53.204;6.568;2022-11-20T03:18:51;19.38;;;14.15;;
51800;SDS011;37855;53.204;6.568;2022-11-20T03:21:20;18.13;;;14.27;;
51800;SDS011;37855;53.204;6.568;2022-11-20T03:23:49;17.77;;;14.40;;
51800;SDS011;37855;53.204;6.568;2022-11-20T03:26:19;16.70;;;13.48;;
51800;SDS011;37855;53.204;6.568;2022-11-20T03:28:50;17.83;;;13.63;;
51800;SDS011;37855;53.204;6.568;2022-11-20T03:31:21;16.52;;;12.80;;
51800;SDS011;37855;53.204;6.568;2022-11-20T03:33:52;17.48;;;13.07;;
51800;SDS011;37855;53.204;6.568;2022-11-20T03:36:20;17.13;;;13.25;;
51800;SDS011;37855;53.204;6.568;2022-11-20T03:38:47;19.20;;;13.88;;
51800;SDS011;37855;53.204;6.568;2022-11-20T03:41:17;17.00;;;13.70;;
51800;SDS011;37855;53.204;6.568;2022-11-20T03:43:58;18.17;;;13.73;;
51800;SDS011;37855;53.204;6.568;2022-11-20T03:46:31;17.40;;;13.68;;
51800;SDS011;37855;53.204;6.568;2022-11-20T03:48:57;17.50;;;13.65;;
51800;SDS011;37855;53.204;6.568;2022-11-20T03:51:24;17.45;;;13.75;;
51800;SDS011;37855;53.204;6.568;2022-11-20T03:53:55;18.77;;;14.35;;
51800;SDS011;37855;53.204;6.568;2022-11-20T03:56:23;17.30;;;13.68;;
51800;SDS011;37855;53.204;6.568;2022-11-20T03:58:53;16.73;;;13.35;;
51800;SDS011;37855;53.204;6.568;2022-11-20T04:01:20;19.48;;;13.88;;
51800;SDS011;37855;53.204;6.568;2022-11-20T04:03:54;18.13;;;13.15;;
51800;SDS011;37855;53.204;6.568;2022-11-20T04:06:26;16.52;;;12.98;;
51800;SDS011;37855;53.204;6.568;2022-11-20T04:08:58;18.98;;;13.52;;
51800;SDS011;37855;53.204;6.568;2022-11-20T04:11:27;17.58;;;13.55;;
51800;SDS011;37855;53.204;6.568;2022-11-20T04:13:55;17.02;;;13.23;;
51800;SDS011;37855;53.204;6.568;2022-11-20T04:16:23;17.88;;;12.35;;
51800;SDS011;37855;53.204;6.568;2022-11-20T04:18:51;15.35;;;12.63;;
51800;SDS011;37855;53.204;6.568;2022-11-20T04:21:22;15.75;;;13.02;;
51800;SDS011;37855;53.204;6.568;2022-11-20T04:23:56;20.77;;;13.20;;
51800;SDS011;37855;53.204;6.568;2022-11-20T04:26:25;18.55;;;12.90;;
51800;SDS011;37855;53.204;6.568;2022-11-20T04:29:00;18.17;;;12.90;;
51800;SDS011;37855;53.204;6.568;2022-11-20T04:31:32;17.65;;;12.85;;
51800;SDS011;37855;53.204;6.568;2022-11-20T04:34:11;14.90;;;12.10;;
51800;SDS011;37855;53.204;6.568;2022-11-20T04:36:40;15.88;;;12.02;;
51800;SDS011;37855;53.204;6.568;2022-11-20T04:39:11;15.45;;;11.77;;
51800;SDS011;37855;53.204;6.568;2022-11-20T04:41:40;15.98;;;11.98;;
51800;SDS011;37855;53.204;6.568;2022-11-20T04:44:07;15.90;;;12.32;;
51800;SDS011;37855;53.204;6.568;2022-11-20T04:46:34;15.93;;;12.18;;
51800;SDS011;37855;53.204;6.568;2022-11-20T04:49:05;15.93;;;12.25;;
51800;SDS011;37855;53.204;6.568;2022-11-20T04:51:32;15.80;;;11.98;;
51800;SDS011;37855;53.204;6.568;2022-11-20T04:53:58;16.73;;;12.00;;
51800;SDS011;37855;53.204;6.568;2022-11-20T04:56:24;15.88;;;11.68;;
51800;SDS011;37855;53.204;6.568;2022-11-20T04:58:49;14.55;;;11.55;;
51800;SDS011;37855;53.204;6.568;2022-11-20T05:01:16;15.30;;;12.27;;
51800;SDS011;37855;53.204;6.568;2022-11-20T05:03:44;16.88;;;12.38;;
51800;SDS011;37855;53.204;6.568;2022-11-20T05:06:11;15.00;;;12.05;;
51800;SDS011;37855;53.204;6.568;2022-11-20T05:08:38;15.07;;;11.75;;
51800;SDS011;37855;53.204;6.568;2022-11-20T05:11:04;15.32;;;11.93;;
51800;SDS011;37855;53.204;6.568;2022-11-20T05:13:42;14.68;;;11.50;;
51800;SDS011;37855;53.204;6.568;2022-11-20T05:16:10;15.63;;;11.43;;
51800;SDS011;37855;53.204;6.568;2022-11-20T05:18:39;13.65;;;11.13;;
51800;SDS011;37855;53.204;6.568;2022-11-20T05:21:06;13.73;;;10.73;;
51800;SDS011;37855;53.204;6.568;2022-11-20T05:23:36;14.98;;;10.65;;
51800;SDS011;37855;53.204;6.568;2022-11-20T05:26:03;14.50;;;10.35;;
51800;SDS011;37855;53.204;6.568;2022-11-20T05:28:34;13.25;;;10.63;;
51800;SDS011;37855;53.204;6.568;2022-11-20T05:33:36;14.18;;;10.68;;
51800;SDS011;37855;53.204;6.568;2022-11-20T05:36:04;12.27;;;10.13;;
51800;SDS011;37855;53.204;6.568;2022-11-20T05:38:34;14.27;;;10.65;;
51800;SDS011;37855;53.204;6.568;2022-11-20T05:41:04;17.58;;;11.25;;
51800;SDS011;37855;53.204;6.568;2022-11-20T05:43:41;15.15;;;10.95;;
51800;SDS011;37855;53.204;6.568;2022-11-20T05:46:11;12.07;;;9.52;;
51800;SDS011;37855;53.204;6.568;2022-11-20T05:48:41;13.63;;;10.63;;
51800;SDS011;37855;53.204;6.568;2022-11-20T05:51:09;14.52;;;10.77;;
51800;SDS011;37855;53.204;6.568;2022-11-20T05:53:35;13.15;;;10.60;;
51800;SDS011;37855;53.204;6.568;2022-11-20T05:56:03;14.85;;;10.95;;
51800;SDS011;37855;53.204;6.568;2022-11-20T05:58:30;13.48;;;10.85;;
51800;SDS011;37855;53.204;6.568;2022-11-20T06:01:04;12.88;;;10.02;;
51800;SDS011;37855;53.204;6.568;2022-11-20T06:03:29;13.80;;;10.85;;
51800;SDS011;37855;53.204;6.568;2022-11-20T06:05:55;13.13;;;10.35;;
51800;SDS011;37855;53.204;6.568;2022-11-20T06:08:21;12.65;;;10.05;;
51800;SDS011;37855;53.204;6.568;2022-11-20T06:10:46;12.60;;;10.35;;
51800;SDS011;37855;53.204;6.568;2022-11-20T06:13:13;14.10;;;10.57;;
51800;SDS011;37855;53.204;6.568;2022-11-20T06:15:39;12.60;;;10.02;;
51800;SDS011;37855;53.204;6.568;2022-11-20T06:18:07;14.25;;;10.65;;
51800;SDS011;37855;53.204;6.568;2022-11-20T06:20:34;14.00;;;10.02;;
51800;SDS011;37855;53.204;6.568;2022-11-20T06:23:01;15.57;;;10.80;;
51800;SDS011;37855;53.204;6.568;2022-11-20T06:25:26;12.35;;;10.23;;
51800;SDS011;37855;53.204;6.568;2022-11-20T06:27:52;13.93;;;10.75;;
51800;SDS011;37855;53.204;6.568;2022-11-20T06:30:17;12.48;;;10.30;;
51800;SDS011;37855;53.204;6.568;2022-11-20T06:32:43;13.02;;;10.13;;
51800;SDS011;37855;53.204;6.568;2022-11-20T06:35:16;14.85;;;10.35;;
51800;SDS011;37855;53.204;6.568;2022-11-20T06:37:43;12.60;;;10.02;;
51800;SDS011;37855;53.204;6.568;2022-11-20T06:40:12;13.45;;;10.38;;
51800;SDS011;37855;53.204;6.568;2022-11-20T06:42:38;13.85;;;10.77;;
51800;SDS011;37855;53.204;6.568;2022-11-20T06:45:08;14.00;;;10.73;;
51800;SDS011;37855;53.204;6.568;2022-11-20T06:47:36;13.80;;;10.40;;
51800;SDS011;37855;53.204;6.568;2022-11-20T06:50:02;15.70;;;10.77;;
51800;SDS011;37855;53.204;6.568;2022-11-20T06:52:28;14.75;;;10.70;;
51800;SDS011;37855;53.204;6.568;2022-11-20T06:54:55;14.00;;;11.02;;
51800;SDS011;37855;53.204;6.568;2022-11-20T06:57:22;14.15;;;10.73;;
51800;SDS011;37855;53.204;6.568;2022-11-20T06:59:53;14.57;;;11.18;;
51800;SDS011;37855;53.204;6.568;2022-11-20T07:02:19;13.02;;;9.95;;
51800;SDS011;37855;53.204;6.568;2022-11-20T07:04:46;12.07;;;9.82;;
51800;SDS011;37855;53.204;6.568;2022-11-20T07:07:14;13.38;;;10.60;;
51800;SDS011;37855;53.204;6.568;2022-11-20T07:09:41;13.20;;;10.68;;
51800;SDS011;37855;53.204;6.568;2022-11-20T07:12:06;14.60;;;11.30;;
51800;SDS011;37855;53.204;6.568;2022-11-20T07:14:35;12.63;;;9.93;;
51800;SDS011;37855;53.204;6.568;2022-11-20T07:17:01;11.90;;;9.70;;
51800;SDS011;37855;53.204;6.568;2022-11-20T07:19:28;13.98;;;10.38;;
51800;SDS011;37855;53.204;6.568;2022-11-20T07:21:57;12.40;;;10.55;;
51800;SDS011;37855;53.204;6.568;2022-11-20T07:24:25;13.52;;;10.60;;
51800;SDS011;37855;53.204;6.568;2022-11-20T07:26:51;14.75;;;11.77;;
51800;SDS011;37855;53.204;6.568;2022-11-20T07:29:29;16.50;;;11.52;;
51800;SDS011;37855;53.204;6.568;2022-11-20T07:32:08;13.50;;;10.98;;
51800;SDS011;37855;53.204;6.568;2022-11-20T07:34:45;13.40;;;11.13;;
51800;SDS011;37855;53.204;6.568;2022-11-20T07:37:11;14.02;;;10.82;;
51800;SDS011;37855;53.204;6.568;2022-11-20T07:39:37;13.95;;;10.77;;
51800;SDS011;37855;53.204;6.568;2022-11-20T07:42:03;15.18;;;10.77;;
51800;SDS011;37855;53.204;6.568;2022-11-20T07:44:28;13.07;;;10.90;;
51800;SDS011;37855;53.204;6.568;2022-11-20T07:46:54;13.73;;;10.50;;
51800;SDS011;37855;53.204;6.568;2022-11-20T07:49:20;13.48;;;10.73;;
51800;SDS011;37855;53.204;6.568;2022-11-20T07:51:45;12.38;;;10.35;;
51800;SDS011;37855;53.204;6.568;2022-11-20T07:54:11;13.55;;;10.88;;
51800;SDS011;37855;53.204;6.568;2022-11-20T07:56:36;12.38;;;10.35;;
51800;SDS011;37855;53.204;6.568;2022-11-20T07:59:03;13.55;;;10.75;;
51800;SDS011;37855;53.204;6.568;2022-11-20T08:01:28;15.32;;;10.82;;
51800;SDS011;37855;53.204;6.568;2022-11-20T08:03:54;14.10;;;10.57;;
51800;SDS011;37855;53.204;6.568;2022-11-20T08:06:20;13.35;;;10.45;;
51800;SDS011;37855;53.204;6.568;2022-11-20T08:08:45;13.40;;;10.60;;
51800;SDS011;37855;53.204;6.568;2022-11-20T08:11:11;13.80;;;10.68;;
51800;SDS011;37855;53.204;6.568;2022-11-20T08:14:00;12.80;;;10.43;;
51800;SDS011;37855;53.204;6.568;2022-11-20T08:16:38;13.23;;;10.68;;
51800;SDS011;37855;53.204;6.568;2022-11-20T08:19:07;13.63;;;10.25;;
51800;SDS011;37855;53.204;6.568;2022-11-20T08:21:33;13.30;;;11.20;;
51800;SDS011;37855;53.204;6.568;2022-11-20T08:23:59;13.32;;;10.75;;
51800;SDS011;37855;53.204;6.568;2022-11-20T08:26:28;15.85;;;10.98;;
51800;SDS011;37855;53.204;6.568;2022-11-20T08:28:54;14.43;;;11.13;;
51800;SDS011;37855;53.204;6.568;2022-11-20T08:31:21;16.05;;;11.45;;
51800;SDS011;37855;53.204;6.568;2022-11-20T08:33:47;13.85;;;10.75;;
51800;SDS011;37855;53.204;6.568;2022-11-20T08:36:13;14.75;;;11.10;;
51800;SDS011;37855;53.204;6.568;2022-11-20T08:38:39;13.32;;;10.80;;
51800;SDS011;37855;53.204;6.568;2022-11-20T08:41:07;14.18;;;11.35;;
51800;SDS011;37855;53.204;6.568;2022-11-20T08:43:48;15.27;;;10.75;;
51800;SDS011;37855;53.204;6.568;2022-11-20T08:46:19;13.73;;;10.82;;
51800;SDS011;37855;53.204;6.568;2022-11-20T08:48:45;15.77;;;11.13;;
51800;SDS011;37855;53.204;6.568;2022-11-20T08:51:14;14.77;;;11.73;;
51800;SDS011;37855;53.204;6.568;2022-11-20T08:53:41;14.77;;;12.13;;
51800;SDS011;37855;53.204;6.568;2022-11-20T08:56:07;14.13;;;11.52;;
51800;SDS011;37855;53.204;6.568;2022-11-20T08:58:34;16.83;;;12.07;;
51800;SDS011;37855;53.204;6.568;2022-11-20T09:01:00;13.98;;;11.50;;
51800;SDS011;37855;53.204;6.568;2022-11-20T09:03:26;15.95;;;11.43;;
51800;SDS011;37855;53.204;6.568;2022-11-20T09:05:56;15.90;;;11.73;;
51800;SDS011;37855;53.204;6.568;2022-11-20T09:08:23;14.82;;;11.65;;
51800;SDS011;37855;53.204;6.568;2022-11-20T09:10:51;15.63;;;11.88;;
51800;SDS011;37855;53.204;6.568;2022-11-20T09:13:20;13.77;;;11.10;;
51800;SDS011;37855;53.204;6.568;2022-11-20T09:15:47;14.50;;;11.63;;
51800;SDS011;37855;53.204;6.568;2022-11-20T09:18:17;14.13;;;11.57;;
51800;SDS011;37855;53.204;6.568;2022-11-20T09:20:43;13.75;;;10.93;;
51800;SDS011;37855;53.204;6.568;2022-11-20T09:23:09;15.80;;;12.18;;
51800;SDS011;37855;53.204;6.568;2022-11-20T09:25:34;14.77;;;11.00;;
51800;SDS011;37855;53.204;6.568;2022-11-20T09:28:00;13.90;;;11.27;;
51800;SDS011;37855;53.204;6.568;2022-11-20T09:30:26;14.18;;;11.32;;
51800;SDS011;37855;53.204;6.568;2022-11-20T09:32:52;14.88;;;11.65;;
51800;SDS011;37855;53.204;6.568;2022-11-20T09:35:18;14.05;;;11.40;;
51800;SDS011;37855;53.204;6.568;2022-11-20T09:37:44;14.40;;;11.30;;
51800;SDS011;37855;53.204;6.568;2022-11-20T09:40:19;12.18;;;10.10;;
51800;SDS011;37855;53.204;6.568;2022-11-20T09:42:54;13.65;;;10.93;;
51800;SDS011;37855;53.204;6.568;2022-11-20T09:45:28;13.55;;;10.68;;
51800;SDS011;37855;53.204;6.568;2022-11-20T09:50:34;13.48;;;10.48;;
51800;SDS011;37855;53.204;6.568;2022-11-20T09:55:38;12.80;;;10.25;;
51800;SDS011;37855;53.204;6.568;2022-11-20T09:58:13;13.07;;;10.70;;
51800;SDS011;37855;53.204;6.568;2022-11-20T10:00:49;12.93;;;10.68;;
51800;SDS011;37855;53.204;6.568;2022-11-20T10:03:29;13.77;;;10.65;;
51800;SDS011;37855;53.204;6.568;2022-11-20T10:06:10;12.65;;;9.70;;
51800;SDS011;37855;53.204;6.568;2022-11-20T10:08:44;12.50;;;9.57;;
51800;SDS011;37855;53.204;6.568;2022-11-20T10:19:24;13.45;;;10.10;;
51800;SDS011;37855;53.204;6.568;2022-11-20T10:22:00;12.80;;;9.85;;
51800;SDS011;37855;53.204;6.568;2022-11-20T10:30:45;12.93;;;10.13;;
51800;SDS011;37855;53.204;6.568;2022-11-20T10:35:45;11.68;;;8.85;;
51800;SDS011;37855;53.204;6.568;2022-11-20T10:38:40;14.13;;;9.27;;
51800;SDS011;37855;53.204;6.568;2022-11-20T10:41:23;12.90;;;9.82;;
51800;SDS011;37855;53.204;6.568;2022-11-20T10:43:57;12.65;;;9.38;;
51800;SDS011;37855;53.204;6.568;2022-11-20T10:47:00;11.65;;;9.05;;
51800;SDS011;37855;53.204;6.568;2022-11-20T10:49:26;11.50;;;9.30;;
51800;SDS011;37855;53.204;6.568;2022-11-20T10:55:08;13.52;;;9.10;;
51800;SDS011;37855;53.204;6.568;2022-11-20T11:00:36;12.23;;;9.10;;
51800;SDS011;37855;53.204;6.568;2022-11-20T11:03:02;11.73;;;9.48;;
51800;SDS011;37855;53.204;6.568;2022-11-20T11:08:14;14.05;;;9.13;;
51800;SDS011;37855;53.204;6.568;2022-11-20T11:10:51;13.73;;;9.27;;
51800;SDS011;37855;53.204;6.568;2022-11-20T11:13:22;12.77;;;9.27;;
51800;SDS011;37855;53.204;6.568;2022-11-20T11:15:52;12.10;;;9.07;;
51800;SDS011;37855;53.204;6.568;2022-11-20T11:18:31;13.55;;;9.52;;
51800;SDS011;37855;53.204;6.568;2022-11-20T11:20:59;12.30;;;9.00;;
51800;SDS011;37855;53.204;6.568;2022-11-20T11:23:41;11.85;;;9.13;;
51800;SDS011;37855;53.204;6.568;2022-11-20T11:26:20;11.50;;;8.38;;
51800;SDS011;37855;53.204;6.568;2022-11-20T11:31:30;12.00;;;9.02;;
51800;SDS011;37855;53.204;6.568;2022-11-20T11:34:05;11.95;;;9.20;;
51800;SDS011;37855;53.204;6.568;2022-11-20T11:36:37;12.35;;;9.65;;
51800;SDS011;37855;53.204;6.568;2022-11-20T11:39:04;11.93;;;9.50;;
51800;SDS011;37855;53.204;6.568;2022-11-20T11:41:41;11.43;;;9.45;;
51800;SDS011;37855;53.204;6.568;2022-11-20T11:44:19;11.77;;;8.75;;
51800;SDS011;37855;53.204;6.568;2022-11-20T11:52:49;10.88;;;8.48;;
51800;SDS011;37855;53.204;6.568;2022-11-20T11:55:42;12.55;;;8.30;;
51800;SDS011;37855;53.204;6.568;2022-11-20T12:07:10;11.60;;;8.07;;
51800;SDS011;37855;53.204;6.568;2022-11-20T12:09:42;11.70;;;7.63;;
51800;SDS011;37855;53.204;6.568;2022-11-20T12:12:15;10.65;;;8.07;;
51800;SDS011;37855;53.204;6.568;2022-11-20T12:14:48;10.65;;;7.35;;
51800;SDS011;37855;53.204;6.568;2022-11-20T12:17:16;9.57;;;7.60;;
51800;SDS011;37855;53.204;6.568;2022-11-20T12:19:43;9.60;;;7.50;;
51800;SDS011;37855;53.204;6.568;2022-11-20T12:25:07;11.48;;;7.82;;
51800;SDS011;37855;53.204;6.568;2022-11-20T12:30:21;11.85;;;7.05;;
51800;SDS011;37855;53.204;6.568;2022-11-20T12:38:45;7.93;;;5.88;;
51800;SDS011;37855;53.204;6.568;2022-11-20T12:41:12;7.88;;;5.70;;
51800;SDS011;37855;53.204;6.568;2022-11-20T13:01:24;11.35;;;6.10;;
51800;SDS011;37855;53.204;6.568;2022-11-20T13:04:18;8.50;;;5.28;;
51800;SDS011;37855;53.204;6.568;2022-11-20T13:07:09;7.53;;;5.25;;
51800;SDS011;37855;53.204;6.568;2022-11-20T13:09:40;7.22;;;5.22;;
51800;SDS011;37855;53.204;6.568;2022-11-20T13:12:18;7.70;;;5.35;;
51800;SDS011;37855;53.204;6.568;2022-11-20T13:14:53;7.70;;;5.70;;
51800;SDS011;37855;53.204;6.568;2022-11-20T13:17:51;8.48;;;5.93;;
51800;SDS011;37855;53.204;6.568;2022-11-20T13:20:22;8.88;;;5.75;;
51800;SDS011;37855;53.204;6.568;2022-11-20T13:22:49;9.23;;;6.10;;
51800;SDS011;37855;53.204;6.568;2022-11-20T13:28:32;9.30;;;6.28;;
51800;SDS011;37855;53.204;6.568;2022-11-20T13:31:00;11.25;;;6.40;;
51800;SDS011;37855;53.204;6.568;2022-11-20T13:33:33;7.97;;;6.22;;
51800;SDS011;37855;53.204;6.568;2022-11-20T13:36:06;9.80;;;6.72;;
51800;SDS011;37855;53.204;6.568;2022-11-20T13:38:48;9.73;;;6.68;;
51800;SDS011;37855;53.204;6.568;2022-11-20T13:44:05;9.23;;;6.00;;
51800;SDS011;37855;53.204;6.568;2022-11-20T13:46:38;9.43;;;6.75;;
51800;SDS011;37855;53.204;6.568;2022-11-20T13:49:17;9.43;;;5.95;;
51800;SDS011;37855;53.204;6.568;2022-11-20T13:51:50;9.00;;;6.43;;
51800;SDS011;37855;53.204;6.568;2022-11-20T13:54:42;9.48;;;6.53;;
51800;SDS011;37855;53.204;6.568;2022-11-20T13:57:47;7.97;;;6.07;;
51800;SDS011;37855;53.204;6.568;2022-11-20T14:00:21;10.65;;;6.93;;
51800;SDS011;37855;53.204;6.568;2022-11-20T14:02:59;10.32;;;6.38;;
51800;SDS011;37855;53.204;6.568;2022-11-20T14:05:49;8.98;;;6.90;;
51800;SDS011;37855;53.204;6.568;2022-11-20T14:11:34;9.43;;;7.38;;
51800;SDS011;37855;53.204;6.568;2022-11-20T14:14:04;9.95;;;7.45;;
51800;SDS011;37855;53.204;6.568;2022-11-20T14:16:39;11.02;;;7.30;;
51800;SDS011;37855;53.204;6.568;2022-11-20T14:21:46;11.05;;;7.80;;
51800;SDS011;37855;53.204;6.568;2022-11-20T14:24:12;11.65;;;7.95;;
51800;SDS011;37855;53.204;6.568;2022-11-20T14:26:42;10.25;;;7.72;;
51800;SDS011;37855;53.204;6.568;2022-11-20T14:29:13;10.02;;;7.47;;
51800;SDS011;37855;53.204;6.568;2022-11-20T14:31:44;10.32;;;7.68;;
51800;SDS011;37855;53.204;6.568;2022-11-20T14:34:15;11.00;;;7.90;;
51800;SDS011;37855;53.204;6.568;2022-11-20T14:36:44;12.38;;;7.82;;
51800;SDS011;37855;53.204;6.568;2022-11-20T14:39:20;10.50;;;7.63;;
51800;SDS011;37855;53.204;6.568;2022-11-20T14:41:54;13.40;;;8.38;;
51800;SDS011;37855;53.204;6.568;2022-11-20T14:44:31;13.45;;;8.68;;
51800;SDS011;37855;53.204;6.568;2022-11-20T14:46:59;13.65;;;8.98;;
51800;SDS011;37855;53.204;6.568;2022-11-20T14:49:28;12.25;;;9.38;;
51800;SDS011;37855;53.204;6.568;2022-11-20T14:52:03;12.75;;;7.95;;
51800;SDS011;37855;53.204;6.568;2022-11-20T14:54:45;10.60;;;7.80;;
51800;SDS011;37855;53.204;6.568;2022-11-20T15:02:45;9.90;;;7.38;;
51800;SDS011;37855;53.204;6.568;2022-11-20T15:05:16;10.43;;;7.65;;
51800;SDS011;37855;53.204;6.568;2022-11-20T15:07:47;10.57;;;8.00;;
51800;SDS011;37855;53.204;6.568;2022-11-20T15:10:25;11.10;;;8.02;;
51800;SDS011;37855;53.204;6.568;2022-11-20T15:12:52;10.25;;;7.50;;
51800;SDS011;37855;53.204;6.568;2022-11-20T15:18:16;10.85;;;8.00;;
51800;SDS011;37855;53.204;6.568;2022-11-20T15:20:44;11.45;;;8.45;;
51800;SDS011;37855;53.204;6.568;2022-11-20T15:23:11;12.73;;;8.52;;
51800;SDS011;37855;53.204;6.568;2022-11-20T15:25:43;10.57;;;8.23;;
51800;SDS011;37855;53.204;6.568;2022-11-20T15:28:29;11.07;;;8.43;;
51800;SDS011;37855;53.204;6.568;2022-11-20T15:30:58;12.02;;;8.63;;
51800;SDS011;37855;53.204;6.568;2022-11-20T15:33:25;12.73;;;9.02;;
51800;SDS011;37855;53.204;6.568;2022-11-20T15:35:53;11.60;;;9.25;;
51800;SDS011;37855;53.204;6.568;2022-11-20T15:38:18;12.70;;;9.13;;
51800;SDS011;37855;53.204;6.568;2022-11-20T15:40:49;12.73;;;9.45;;
51800;SDS011;37855;53.204;6.568;2022-11-20T15:43:41;14.20;;;10.57;;
51800;SDS011;37855;53.204;6.568;2022-11-20T15:46:13;13.13;;;10.23;;
51800;SDS011;37855;53.204;6.568;2022-11-20T15:48:44;14.35;;;10.05;;
51800;SDS011;37855;53.204;6.568;2022-11-20T15:51:21;13.23;;;10.20;;
51800;SDS011;37855;53.204;6.568;2022-11-20T15:53:52;15.23;;;9.98;;
51800;SDS011;37855;53.204;6.568;2022-11-20T15:56:23;13.05;;;9.65;;
51800;SDS011;37855;53.204;6.568;2022-11-20T15:58:56;11.65;;;9.75;;
51800;SDS011;37855;53.204;6.568;2022-11-20T16:01:25;12.45;;;9.77;;
51800;SDS011;37855;53.204;6.568;2022-11-20T16:04:00;11.13;;;8.85;;
51800;SDS011;37855;53.204;6.568;2022-11-20T16:06:26;11.88;;;9.95;;
51800;SDS011;37855;53.204;6.568;2022-11-20T16:08:53;15.45;;;9.88;;
51800;SDS011;37855;53.204;6.568;2022-11-20T16:11:24;14.25;;;10.63;;
51800;SDS011;37855;53.204;6.568;2022-11-20T16:13:51;14.25;;;10.02;;
51800;SDS011;37855;53.204;6.568;2022-11-20T16:16:36;14.35;;;10.95;;
51800;SDS011;37855;53.204;6.568;2022-11-20T16:19:10;14.70;;;10.68;;
51800;SDS011;37855;53.204;6.568;2022-11-20T16:21:37;13.27;;;10.50;;
51800;SDS011;37855;53.204;6.568;2022-11-20T16:24:05;14.00;;;10.15;;
51800;SDS011;37855;53.204;6.568;2022-11-20T16:26:34;13.68;;;10.70;;
51800;SDS011;37855;53.204;6.568;2022-11-20T16:29:07;15.85;;;11.48;;
51800;SDS011;37855;53.204;6.568;2022-11-20T16:31:33;17.67;;;12.48;;
51800;SDS011;37855;53.204;6.568;2022-11-20T16:34:00;14.45;;;11.13;;
51800;SDS011;37855;53.204;6.568;2022-11-20T16:36:28;15.68;;;11.65;;